Terminal Aerodrome Forecast
Issued by NWS Twin Cities, MN

Home | Current Version | Previous Version | Text Only | Print | Product List | Glossary On
Versions: 1 2 3 4 5 6 7 8 9 10 11 12 13 14 15 16 17 18 19 20 21 22 23
000
FTUS43 KMPX 222300
TAFEAU
TAF
KEAU 222332Z 2300/2324 32005KT P6SM SCT025 BKN040
     FM230600 05002KT 2SM BR FEW002
     FM230800 06002KT 1/4SM FG VV001
     FM231400 09008KT P6SM SCT015 BKN030=

USA.gov is the U.S. government's official web portal to all federal, state and local government web resources and services.